createdAt,value
2018-12-11T00:03:03.537Z,7.28
2018-12-11T00:08:58.547Z,6.54
2018-12-11T00:14:53.547Z,7.39
2018-12-11T00:20:48.578Z,7.38
2018-12-11T00:26:43.531Z,7.15
2018-12-11T00:32:38.570Z,7.11
2018-12-11T00:38:33.571Z,6.06
2018-12-11T00:44:28.576Z,6.57
2018-12-11T00:50:23.556Z,6.24
2018-12-11T00:56:18.573Z,5.82
2018-12-11T01:02:13.584Z,6.33
2018-12-11T01:08:08.597Z,5.42
2018-12-11T01:14:03.600Z,5.66
2018-12-11T01:19:58.588Z,5.4
2018-12-11T01:25:53.598Z,4.99
2018-12-11T01:31:48.627Z,5.43
2018-12-11T01:37:43.661Z,5.11
2018-12-11T01:43:38.606Z,4.79
2018-12-11T01:49:33.625Z,4.92
2018-12-11T01:55:28.620Z,5.33
2018-12-11T02:01:23.643Z,4.31
2018-12-11T02:07:18.672Z,4.55
2018-12-11T02:13:13.654Z,4.54
2018-12-11T02:19:08.619Z,4.33
2018-12-11T02:25:03.633Z,3.47
2018-12-11T02:30:58.654Z,3.94
2018-12-11T02:36:53.625Z,3.89
2018-12-11T02:42:48.665Z,3.64
2018-12-11T02:48:43.635Z,4.01
2018-12-11T02:54:38.636Z,4.2
2018-12-11T03:00:33.670Z,3.37
2018-12-11T03:06:28.658Z,4.21
2018-12-11T03:12:23.704Z,4.02
2018-12-11T03:18:18.675Z,3.58
2018-12-11T03:24:13.644Z,3.79
2018-12-11T03:30:08.676Z,3.97
2018-12-11T03:36:03.657Z,3.91
2018-12-11T03:41:58.665Z,3.24
2018-12-11T03:47:53.670Z,4.26
2018-12-11T03:53:48.688Z,4.16
2018-12-11T03:59:43.688Z,3.85
2018-12-11T04:05:38.690Z,3.83
2018-12-11T04:11:33.683Z,4.64
2018-12-11T04:17:28.714Z,5.04
2018-12-11T04:23:23.701Z,5.67
2018-12-11T04:29:18.685Z,6.44
2018-12-11T04:35:13.689Z,5.46
2018-12-11T04:41:08.705Z,4.93
2018-12-11T04:47:03.676Z,5.11
2018-12-11T04:52:58.792Z,4.6
2018-12-11T04:58:53.698Z,4.71
2018-12-11T05:04:48.698Z,4.54
2018-12-11T05:10:43.703Z,4.95
2018-12-11T05:16:38.742Z,4.4
2018-12-11T05:22:33.739Z,4.1
2018-12-11T05:28:28.731Z,5
2018-12-11T05:34:23.789Z,4.18
2018-12-11T05:40:18.739Z,4.2
2018-12-11T05:46:13.786Z,5.06
2018-12-11T05:52:08.779Z,5.58
2018-12-11T05:58:03.785Z,4.95
2018-12-11T06:03:58.730Z,4.47
2018-12-11T06:09:53.746Z,5.98
2018-12-11T06:15:48.735Z,4.98
2018-12-11T06:21:43.741Z,4.73
2018-12-11T06:27:38.776Z,5.31
2018-12-11T06:33:33.764Z,5.52
2018-12-11T06:39:28.783Z,5.26
2018-12-11T06:45:23.764Z,4.62
2018-12-11T06:51:18.796Z,4.59
2018-12-11T06:57:13.789Z,5.1
2018-12-11T07:03:08.764Z,4.12
2018-12-11T07:09:03.800Z,3.74
2018-12-11T07:14:58.783Z,4.79
2018-12-11T07:20:53.814Z,4.19
2018-12-11T07:26:48.786Z,3.92
2018-12-11T07:32:43.791Z,5.28
2018-12-11T07:38:38.789Z,5.01
2018-12-11T07:44:33.788Z,5
2018-12-11T07:50:28.831Z,15.12
2018-12-11T07:56:23.784Z,6.77
2018-12-11T08:02:18.828Z,7.46
2018-12-11T08:08:13.824Z,5.52
2018-12-11T08:14:08.799Z,8.51
2018-12-11T08:20:03.803Z,15.12
2018-12-11T08:25:58.811Z,5.18
2018-12-11T08:31:53.796Z,4.31
2018-12-11T08:37:48.825Z,3.55
2018-12-11T08:43:43.811Z,4.03
2018-12-11T08:49:38.846Z,3.73
2018-12-11T08:55:33.906Z,6.51
2018-12-11T09:01:28.810Z,4.8
2018-12-11T09:07:23.869Z,4.43
2018-12-11T09:13:18.850Z,3.54
2018-12-11T09:19:13.843Z,4.11
2018-12-11T09:25:08.855Z,4.54
2018-12-11T09:31:03.890Z,3.86
2018-12-11T09:36:58.885Z,3.83
2018-12-11T09:42:53.876Z,3.33
2018-12-11T09:48:48.864Z,5.35
2018-12-11T09:54:43.909Z,3.97
2018-12-11T10:00:38.967Z,4.11
2018-12-11T10:06:33.851Z,5.43
2018-12-11T10:12:28.879Z,6.04
2018-12-11T10:18:23.959Z,5.18
2018-12-11T10:24:18.888Z,6.6
2018-12-11T10:30:14.524Z,5.53
2018-12-11T10:36:08.899Z,5.9
2018-12-11T10:42:03.880Z,5.76
2018-12-11T10:47:58.892Z,6.48
2018-12-11T10:53:53.865Z,5.82
2018-12-11T10:59:48.895Z,6.88
2018-12-11T11:05:43.904Z,2.87
2018-12-11T11:11:38.904Z,3.23
2018-12-11T11:17:33.935Z,2.65
2018-12-11T11:23:28.907Z,2.62
2018-12-11T11:29:23.897Z,1.34
2018-12-11T11:35:18.982Z,5.65
2018-12-11T11:41:13.944Z,1.92
2018-12-11T11:47:08.919Z,15.12
2018-12-11T11:53:03.913Z,3.12
2018-12-11T11:58:58.942Z,2
2018-12-11T12:04:53.939Z,3.08
2018-12-11T12:10:48.952Z,2.4
2018-12-11T12:16:43.933Z,1.51
2018-12-11T12:22:38.936Z,1.31
2018-12-11T12:28:33.932Z,1.17
2018-12-11T12:34:28.936Z,1.37
2018-12-11T12:40:23.939Z,1.6
2018-12-11T12:46:18.958Z,1.43
2018-12-11T12:52:13.960Z,1.54
2018-12-11T12:58:08.994Z,1.34
2018-12-11T13:04:03.989Z,1.29
2018-12-11T13:09:58.953Z,1.09
2018-12-11T13:15:53.964Z,1.19
2018-12-11T13:21:49.032Z,1.13
2018-12-11T13:27:43.974Z,0.78
2018-12-11T13:33:38.971Z,1.11
2018-12-11T13:39:34.009Z,1.38
2018-12-11T13:45:29.035Z,1.63
2018-12-11T13:51:24.046Z,1.43
2018-12-11T13:57:18.982Z,1.13
2018-12-11T14:03:13.983Z,2.56
2018-12-11T14:09:09.003Z,3.16
2018-12-11T14:15:04.072Z,1.86
2018-12-11T14:20:58.992Z,3.17
2018-12-11T14:26:54.009Z,4.14
2018-12-11T14:32:49.009Z,2.94
2018-12-11T14:38:44.025Z,2.58
2018-12-11T14:44:39.009Z,3.85
2018-12-11T14:50:34.059Z,2.72
2018-12-11T14:56:29.041Z,3.1
2018-12-11T15:02:24.033Z,4.66
2018-12-11T15:08:19.026Z,4.99
2018-12-11T15:14:14.022Z,6.27
2018-12-11T15:20:09.039Z,6.06
2018-12-11T15:26:05.414Z,5.95
2018-12-11T15:31:59.050Z,5.69
2018-12-11T15:37:54.057Z,5.71
2018-12-11T15:43:49.052Z,6.36
2018-12-11T15:49:44.048Z,8.09
2018-12-11T15:55:39.051Z,9
2018-12-11T16:01:34.063Z,7.77
2018-12-11T16:07:29.092Z,4.9
2018-12-11T16:13:24.094Z,5.02
2018-12-11T16:19:19.061Z,5.27
2018-12-11T16:25:14.121Z,5.59
2018-12-11T16:31:09.079Z,9.15
2018-12-11T16:37:04.173Z,10.97
2018-12-11T16:42:59.079Z,10.03
2018-12-11T16:48:54.109Z,9.51
2018-12-11T16:54:49.092Z,9.79
2018-12-11T17:00:44.109Z,11.92
2018-12-11T17:06:39.116Z,10.07
2018-12-11T17:12:34.105Z,10.52
2018-12-11T17:18:29.123Z,10.98
2018-12-11T17:24:24.110Z,10.9
2018-12-11T17:30:19.137Z,11.83
2018-12-11T17:36:14.125Z,10.49
2018-12-11T17:42:09.183Z,12.93
2018-12-11T17:48:04.119Z,12.04
2018-12-11T17:53:59.149Z,9.18
2018-12-11T17:59:54.130Z,7.7
2018-12-11T18:05:49.129Z,8.39
2018-12-11T18:11:44.148Z,10.01
2018-12-11T18:17:39.159Z,10.95
2018-12-11T18:23:34.182Z,11.42
2018-12-11T18:29:29.192Z,13.92
2018-12-11T18:35:24.150Z,14.78
2018-12-11T18:41:19.188Z,14.18
2018-12-11T18:47:14.170Z,16.86
2018-12-11T18:53:09.183Z,16.9
2018-12-11T18:59:04.175Z,13.31
2018-12-11T19:04:59.185Z,15.08
2018-12-11T19:10:54.210Z,13.18
2018-12-11T19:16:49.190Z,12.71
2018-12-11T19:22:44.182Z,11.23
2018-12-11T19:28:39.180Z,12.2
2018-12-11T19:34:34.198Z,12.15
2018-12-11T19:40:29.187Z,10.66
2018-12-11T19:46:24.184Z,11.03
2018-12-11T19:52:19.211Z,10.87
2018-12-11T19:58:14.207Z,10.1
2018-12-11T20:04:09.215Z,9.89
2018-12-11T20:10:04.213Z,9.21
2018-12-11T20:15:59.200Z,12.79
2018-12-11T20:21:54.243Z,12.35
2018-12-11T20:27:49.217Z,10.89
2018-12-11T20:33:44.234Z,10.6
2018-12-11T20:39:39.225Z,12.56
2018-12-11T20:45:34.268Z,10.75
2018-12-11T20:51:29.238Z,11.16
2018-12-11T20:57:24.234Z,10.56
2018-12-11T21:03:19.233Z,10.85
2018-12-11T21:09:14.230Z,9.87
2018-12-11T21:15:09.282Z,11.28
2018-12-11T21:21:04.264Z,9.25
2018-12-11T21:26:59.257Z,9.08
2018-12-11T21:32:54.237Z,9.59
2018-12-11T21:38:49.276Z,10.35
2018-12-11T21:44:44.284Z,10.23
2018-12-11T21:50:39.254Z,10.09
2018-12-11T21:56:34.267Z,9.98
2018-12-11T22:02:29.293Z,10.8
2018-12-11T22:08:24.297Z,9.42
2018-12-11T22:14:19.270Z,9.7
2018-12-11T22:20:14.260Z,11.34
2018-12-11T22:26:09.273Z,9.93
2018-12-11T22:32:04.274Z,9.92
2018-12-11T22:37:59.376Z,12.18
2018-12-11T22:43:54.321Z,11.41
2018-12-11T22:49:49.306Z,11.34
2018-12-11T22:55:44.347Z,10.34
2018-12-11T23:01:39.286Z,10.25
2018-12-11T23:07:34.330Z,10.7
2018-12-11T23:13:29.313Z,10.54
2018-12-11T23:19:24.326Z,10.2
2018-12-11T23:25:19.325Z,10.73
2018-12-11T23:31:14.309Z,11.35
2018-12-11T23:37:09.356Z,11.93
2018-12-11T23:43:04.324Z,11.54
2018-12-11T23:48:59.321Z,10.57
2018-12-11T23:54:54.352Z,10.17
